Time;durP1;ratioP1;P1;durP2;ratioP2;P2;SDS_P1;SDS_P2;PMS_P1;PMS_P2;Temp;Humidity;BMP_temperature;BMP_pressure;BME280_temperature;BME280_humidity;BME280_pressure;Samples;Min_cycle;Max_cycle;Signal;HPM_P1;HPM_P2
2022/07/30 00:01:51;;;;;;;9.07;5.07;;;;;;;24.76;54.58;100273.53;5019768;28;20133;-72
2022/07/30 00:04:19;;;;;;;15.82;6.00;;;;;;;24.58;54.57;100253.25;5022869;28;20050;-72
2022/07/30 00:06:46;;;;;;;11.48;5.55;;;;;;;24.65;54.75;100272.53;5011285;28;20128;-72
2022/07/30 00:09:12;;;;;;;10.55;5.60;;;;;;;24.53;54.94;100253.56;5009052;28;20046;-73
2022/07/30 00:11:39;;;;;;;10.10;5.55;;;;;;;24.49;54.76;100251.88;5005562;28;20046;-71
2022/07/30 00:14:07;;;;;;;17.10;5.45;;;;;;;24.65;54.96;100275.41;5011459;28;20069;-72
2022/07/30 00:16:34;;;;;;;8.35;4.93;;;;;;;24.56;54.92;100260.56;5005434;28;20116;-72
2022/07/30 00:19:01;;;;;;;9.93;5.95;;;;;;;24.51;55.43;100258.00;5008301;28;20596;-71
2022/07/30 00:21:28;;;;;;;16.65;5.38;;;;;;;24.54;55.17;100260.91;5011249;28;20115;-72
2022/07/30 00:24:02;;;;;;;10.27;5.68;;;;;;;24.59;55.24;100274.88;5008101;28;20080;-71
2022/07/30 00:26:29;;;;;;;10.80;5.43;;;;;;;24.61;55.31;100277.34;5006323;28;20773;-72
2022/07/30 00:28:56;;;;;;;8.13;5.43;;;;;;;24.41;55.56;100252.94;5008283;28;20073;-72
2022/07/30 00:31:23;;;;;;;15.18;5.20;;;;;;;24.55;55.32;100268.31;5007353;28;20169;-72
2022/07/30 00:33:50;;;;;;;12.63;5.93;;;;;;;24.49;55.20;100257.59;5007868;28;20085;-72
2022/07/30 00:36:17;;;;;;;14.23;5.05;;;;;;;24.55;55.59;100274.00;5008704;28;20069;-72
2022/07/30 00:38:44;;;;;;;12.82;5.15;;;;;;;24.51;55.22;100261.72;5009037;28;20080;-72
2022/07/30 00:41:11;;;;;;;11.18;5.93;;;;;;;24.51;55.21;100270.28;5010543;28;20049;-73
2022/07/30 00:43:38;;;;;;;14.48;5.38;;;;;;;24.22;55.60;100231.00;5009054;28;20046;-72
2022/07/30 00:46:05;;;;;;;15.50;6.45;;;;;;;24.38;55.66;100256.56;5010671;28;20096;-72
2022/07/30 00:48:32;;;;;;;13.55;6.07;;;;;;;24.33;55.83;100251.97;5008183;28;20050;-72
2022/07/30 00:50:59;;;;;;;10.93;5.90;;;;;;;24.26;56.04;100243.28;5005584;28;20107;-73
2022/07/30 00:53:26;;;;;;;9.35;5.40;;;;;;;24.36;55.88;100269.16;5010075;28;20136;-72
2022/07/30 00:55:53;;;;;;;15.05;5.38;;;;;;;24.30;56.05;100256.41;5007548;28;20073;-72
2022/07/30 00:58:20;;;;;;;11.35;6.85;;;;;;;24.26;56.30;100249.00;5024815;28;20125;-72
2022/07/30 01:00:47;;;;;;;10.88;5.13;;;;;;;24.10;55.99;100235.69;5005885;28;20476;-71
2022/07/30 01:03:14;;;;;;;14.70;5.90;;;;;;;23.98;56.15;100220.78;5020075;28;20100;-72
2022/07/30 01:05:41;;;;;;;12.88;4.70;;;;;;;24.20;56.30;100253.38;5010693;28;20390;-71
2022/07/30 01:08:08;;;;;;;16.40;5.57;;;;;;;24.03;56.58;100223.31;5008313;28;20088;-72
2022/07/30 01:10:35;;;;;;;16.30;4.80;;;;;;;23.85;56.34;100203.84;5020302;28;20120;-71
2022/07/30 01:13:02;;;;;;;17.73;5.75;;;;;;;24.07;56.50;100245.00;5018127;28;20140;-72
2022/07/30 01:15:30;;;;;;;14.23;4.97;;;;;;;24.04;56.81;100239.25;5008240;28;20050;-72
2022/07/30 01:18:01;;;;;;;13.35;5.15;;;;;;;23.96;56.93;100234.59;5006699;28;20092;-70
2022/07/30 01:20:44;;;;;;;14.30;5.38;;;;;;;23.80;56.79;100221.28;5009992;28;20101;-71
2022/07/30 01:23:25;;;;;;;13.38;4.72;;;;;;;23.75;56.80;100221.59;5004868;28;20137;-72
2022/07/30 01:25:52;;;;;;;14.30;5.05;;;;;;;23.83;56.96;100243.34;5010274;28;20085;-72
2022/07/30 01:28:27;;;;;;;17.88;5.10;;;;;;;23.66;56.79;100215.28;5007810;28;20100;-71
2022/07/30 01:30:56;;;;;;;20.55;5.18;;;;;;;23.51;56.93;100196.25;5007469;28;20132;-72
2022/07/30 01:33:25;;;;;;;14.68;6.10;;;;;;;23.69;57.25;100231.66;5010619;28;20050;-72
2022/07/30 01:35:54;;;;;;;20.27;5.57;;;;;;;23.49;57.10;100205.19;5012666;28;20102;-71
2022/07/30 01:38:23;;;;;;;19.43;5.23;;;;;;;23.56;57.27;100222.44;5013678;28;20485;-72
2022/07/30 01:40:51;;;;;;;12.88;4.75;;;;;;;23.53;57.20;100216.66;5012763;28;20327;-72
2022/07/30 01:43:20;;;;;;;14.20;5.28;;;;;;;23.37;57.38;100199.63;5010974;28;20049;-72
2022/07/30 01:45:48;;;;;;;18.63;4.80;;;;;;;23.53;57.32;100222.34;5010430;28;20124;-72
2022/07/30 01:48:18;;;;;;;17.60;5.00;;;;;;;23.52;57.15;100226.38;5012307;28;20050;-72
2022/07/30 01:50:48;;;;;;;14.07;5.75;;;;;;;23.33;57.40;100199.56;5013278;28;20089;-73
2022/07/30 01:53:18;;;;;;;15.18;4.70;;;;;;;23.46;57.52;100225.06;5011754;28;20477;-73
2022/07/30 01:55:46;;;;;;;9.80;5.22;;;;;;;23.42;57.43;100240.06;5010712;28;20104;-73
2022/07/30 01:58:18;;;;;;;13.02;4.00;;;;;;;23.31;57.29;100227.59;5011251;28;20140;-73
2022/07/30 02:00:47;;;;;;;13.23;5.03;;;;;;;23.16;57.37;100202.88;5024197;28;20088;-71
2022/07/30 02:03:14;;;;;;;10.57;5.15;;;;;;;23.08;57.24;100196.19;5012370;28;20049;-71
2022/07/30 02:05:49;;;;;;;11.35;4.38;;;;;;;23.10;57.71;100210.06;5004236;28;20442;-71
2022/07/30 02:08:25;;;;;;;18.45;4.32;;;;;;;23.05;57.56;100218.91;5011955;28;20129;-70
2022/07/30 02:11:00;;;;;;;11.07;4.80;;;;;;;23.10;57.49;100227.13;5008396;28;20598;-72
2022/07/30 02:13:29;;;;;;;13.60;4.90;;;;;;;23.01;58.00;100215.13;5004134;28;20062;-72
2022/07/30 02:16:04;;;;;;;11.40;4.30;;;;;;;23.13;58.04;100235.75;5009535;28;20566;-72
2022/07/30 02:18:42;;;;;;;16.90;5.80;;;;;;;23.07;57.86;100227.88;5025438;28;20053;-71
2022/07/30 02:21:11;;;;;;;14.88;5.38;;;;;;;23.10;57.92;100232.84;5005047;28;20141;-72
2022/07/30 02:23:42;;;;;;;18.17;4.75;;;;;;;23.06;57.92;100227.06;5003229;28;20518;-71
2022/07/30 02:26:17;;;;;;;13.00;4.47;;;;;;;23.05;58.22;100231.13;5009923;28;20132;-72
2022/07/30 02:28:48;;;;;;;9.50;4.28;;;;;;;23.06;57.97;100229.09;5010897;28;20467;-71
2022/07/30 02:31:18;;;;;;;12.98;4.78;;;;;;;22.93;58.03;100214.97;5011510;28;20085;-71
2022/07/30 02:33:48;;;;;;;13.80;4.47;;;;;;;22.94;58.12;100225.19;5003981;28;20133;-71
2022/07/30 02:36:17;;;;;;;12.10;5.80;;;;;;;22.87;57.91;100209.91;5013345;28;20129;-72
2022/07/30 02:38:46;;;;;;;14.98;4.88;;;;;;;23.00;58.03;100233.44;5008054;28;20133;-72
2022/07/30 02:41:14;;;;;;;17.73;4.70;;;;;;;22.85;57.86;100196.06;5024092;28;20594;-72
2022/07/30 02:43:42;;;;;;;15.25;5.50;;;;;;;22.86;57.85;100203.41;5011370;28;20096;-72
2022/07/30 02:46:11;;;;;;;20.52;4.35;;;;;;;22.95;58.10;100223.16;5009800;28;20061;-73
2022/07/30 02:48:39;;;;;;;;;;;;;;;22.93;58.08;100232.06;5011909;28;20517;-72
2022/07/30 02:51:07;;;;;;;13.60;4.30;;;;;;;23.02;57.68;100226.16;5011515;28;20310;-72
2022/07/30 02:53:36;;;;;;;20.50;4.70;;;;;;;22.96;58.02;100215.44;5009854;28;20089;-72
2022/07/30 02:56:06;;;;;;;12.68;6.28;;;;;;;22.66;58.00;100174.06;5004041;28;20054;-72
2022/07/30 02:58:35;;;;;;;12.77;4.10;;;;;;;22.99;58.23;100226.09;5008870;28;20046;-72
2022/07/30 03:01:02;;;;;;;18.23;6.33;;;;;;;22.99;57.98;100223.25;5007898;28;20489;-72
2022/07/30 03:03:30;;;;;;;12.57;4.88;;;;;;;22.81;58.15;100195.16;5007690;28;20050;-71
2022/07/30 03:05:58;;;;;;;14.05;5.00;;;;;;;22.83;58.17;100198.44;5011339;28;20076;-71
2022/07/30 03:08:26;;;;;;;14.90;5.82;;;;;;;22.82;58.20;100188.25;4995744;28;20125;-72
2022/07/30 03:10:55;;;;;;;14.25;4.60;;;;;;;22.80;58.11;100189.81;5009624;28;20088;-72
2022/07/30 03:13:23;;;;;;;12.25;4.38;;;;;;;22.86;57.87;100197.69;5011083;28;20506;-72
2022/07/30 03:15:51;;;;;;;11.20;5.10;;;;;;;23.03;57.95;100221.28;5007589;28;20128;-72
2022/07/30 03:18:21;;;;;;;9.80;4.50;;;;;;;23.02;57.97;100225.34;5003893;28;20104;-72
2022/07/30 03:20:50;;;;;;;14.68;6.30;;;;;;;22.97;58.21;100217.09;5004693;28;20605;-72
2022/07/30 03:23:19;;;;;;;10.57;4.95;;;;;;;22.70;58.04;100177.00;5009282;28;20140;-72
2022/07/30 03:25:51;;;;;;;15.80;6.07;;;;;;;22.88;57.97;100203.03;5007666;28;20081;-72
2022/07/30 03:28:22;;;;;;;12.45;4.07;;;;;;;22.93;58.08;100219.84;5006001;28;20422;-72
2022/07/30 03:30:50;;;;;;;12.07;5.13;;;;;;;22.74;57.97;100197.03;5009387;28;20073;-72
2022/07/30 03:33:18;;;;;;;12.20;4.68;;;;;;;22.66;58.36;100202.53;5007914;28;20053;-72
2022/07/30 03:35:48;;;;;;;22.38;5.13;;;;;;;22.67;58.39;100212.75;5007416;28;20046;-72
2022/07/30 03:38:17;;;;;;;16.45;4.82;;;;;;;22.63;58.81;100213.84;5006754;28;20181;-72
2022/07/30 03:40:44;;;;;;;13.77;5.22;;;;;;;22.60;58.58;100221.13;5012366;28;20093;-72
2022/07/30 03:43:13;;;;;;;8.23;4.18;;;;;;;22.51;59.17;100211.13;5023928;28;20054;-72
2022/07/30 03:46:01;;;;;;;15.45;5.55;;;;;;;22.38;59.25;100210.41;5010580;28;20069;-71
2022/07/30 03:48:30;;;;;;;18.98;5.68;;;;;;;22.42;59.35;100217.81;5004609;28;20050;-72
2022/07/30 03:50:57;;;;;;;15.85;5.40;;;;;;;22.47;59.43;100228.94;5008280;28;20451;-72
2022/07/30 03:53:26;;;;;;;18.35;4.78;;;;;;;22.28;59.69;100200.41;5008137;28;20442;-72
2022/07/30 03:55:54;;;;;;;16.58;5.53;;;;;;;22.43;59.53;100210.94;5007686;28;20514;-72
2022/07/30 03:58:23;;;;;;;16.92;5.53;;;;;;;22.43;59.78;100205.25;5013021;28;20147;-72
2022/07/30 04:00:50;;;;;;;21.23;6.28;;;;;;;22.50;59.53;100218.03;5008854;28;20050;-71
2022/07/30 04:03:27;;;;;;;12.68;5.15;;;;;;;22.36;59.37;100198.56;5009758;28;20074;-71
2022/07/30 04:05:54;;;;;;;11.38;4.80;;;;;;;22.53;59.85;100225.78;5008080;28;20061;-72
2022/07/30 04:08:22;;;;;;;12.95;5.43;;;;;;;22.53;59.37;100220.94;5004296;28;20144;-71
2022/07/30 04:10:50;;;;;;;13.20;5.65;;;;;;;22.40;59.82;100200.31;5009064;28;20120;-71
2022/07/30 04:13:17;;;;;;;13.85;5.63;;;;;;;22.42;59.72;100197.06;5008053;28;20145;-71
2022/07/30 04:16:10;;;;;;;15.82;5.50;;;;;;;22.45;59.68;100207.72;5010632;28;20141;-72
2022/07/30 04:19:00;;;;;;;9.98;5.13;;;;;;;22.32;59.81;100192.78;5023212;28;20057;-72
2022/07/30 04:21:28;;;;;;;24.02;6.03;;;;;;;22.32;59.80;100204.16;5008245;28;20053;-72
2022/07/30 04:23:57;;;;;;;13.50;4.30;;;;;;;22.31;59.57;100208.19;5015930;28;20129;-71
2022/07/30 04:26:34;;;;;;;16.40;5.70;;;;;;;22.27;59.79;100207.28;5006892;28;20462;-71
2022/07/30 04:29:05;;;;;;;10.90;5.15;;;;;;;22.17;60.21;100199.31;5006657;28;20073;-72
2022/07/30 04:31:34;;;;;;;11.90;4.32;;;;;;;22.25;60.30;100221.03;5003891;28;20157;-72
2022/07/30 04:34:07;;;;;;;14.60;5.15;;;;;;;22.25;60.51;100226.72;5006228;28;20571;-72
2022/07/30 04:36:34;;;;;;;8.80;4.75;;;;;;;22.18;60.37;100215.19;5010152;28;20070;-72
2022/07/30 04:39:02;;;;;;;8.45;4.78;;;;;;;22.16;60.39;100211.91;5008682;28;20056;-72
2022/07/30 04:41:29;;;;;;;19.98;8.13;;;;;;;22.17;60.62;100219.22;5005411;28;20133;-72
2022/07/30 04:44:16;;;;;;;12.90;5.10;;;;;;;22.15;60.76;100193.16;5009808;28;20049;-71
2022/07/30 04:46:43;;;;;;;10.57;5.15;;;;;;;22.34;60.51;100218.84;5003888;28;20050;-72
2022/07/30 04:49:11;;;;;;;11.48;5.80;;;;;;;22.27;60.65;100207.28;5007816;28;20057;-72
2022/07/30 04:51:40;;;;;;;9.93;5.30;;;;;;;22.44;60.36;100223.97;5004074;28;20046;-72
2022/07/30 04:54:10;;;;;;;13.23;5.35;;;;;;;22.46;60.54;100215.91;5008164;28;20050;-72
2022/07/30 04:56:44;;;;;;;18.48;7.35;;;;;;;22.10;60.66;100162.13;5005963;28;20061;-71
2022/07/30 04:59:20;;;;;;;17.13;6.70;;;;;;;22.48;60.29;100216.34;5002996;28;20132;-71
2022/07/30 05:01:49;;;;;;;24.10;7.35;;;;;;;22.60;60.17;100223.97;5007728;28;20129;-71
2022/07/30 05:04:17;;;;;;;15.90;7.25;;;;;;;22.54;60.18;100199.00;5009020;28;20046;-72
2022/07/30 05:06:45;;;;;;;20.52;7.35;;;;;;;22.65;59.98;100214.31;5011626;28;20077;-72
2022/07/30 05:09:14;;;;;;;14.27;7.10;;;;;;;22.71;60.23;100227.06;5012585;28;20568;-72
2022/07/30 05:11:41;;;;;;;24.67;8.45;;;;;;;22.76;59.94;100223.91;5009237;28;20082;-72
2022/07/30 05:14:08;;;;;;;20.75;7.47;;;;;;;22.89;59.75;100244.53;5010336;28;20082;-72
2022/07/30 05:16:35;;;;;;;25.02;7.70;;;;;;;22.86;59.53;100239.59;5008024;28;20084;-72
2022/07/30 05:19:02;;;;;;;18.90;7.55;;;;;;;22.76;59.72;100229.59;5010594;28;20137;-72
2022/07/30 05:21:33;;;;;;;19.02;7.47;;;;;;;22.79;59.99;100231.72;5007228;28;20049;-72
2022/07/30 05:24:00;;;;;;;13.82;6.95;;;;;;;22.93;59.52;100248.31;5012045;28;20141;-72
2022/07/30 05:26:27;;;;;;;20.67;7.82;;;;;;;22.78;59.78;100221.53;5009354;28;20060;-72
2022/07/30 05:28:54;;;;;;;13.75;6.30;;;;;;;22.87;59.95;100253.47;5006939;28;20077;-71
2022/07/30 05:31:23;;;;;;;21.42;6.72;;;;;;;22.73;59.73;100236.03;5027311;28;20050;-73
2022/07/30 05:33:51;;;;;;;16.48;7.07;;;;;;;22.63;59.48;100225.22;5011047;28;20560;-72
2022/07/30 05:36:21;;;;;;;17.95;6.90;;;;;;;22.69;59.83;100223.75;5011666;28;20058;-72
2022/07/30 05:38:48;;;;;;;16.23;6.60;;;;;;;22.82;59.62;100248.06;5012950;28;20081;-72
2022/07/30 05:41:14;;;;;;;20.13;7.72;;;;;;;22.75;59.55;100222.25;5007093;28;20523;-72
2022/07/30 05:43:58;;;;;;;12.05;5.20;;;;;;;22.84;59.53;100220.03;5007467;28;20142;-72
2022/07/30 05:46:25;;;;;;;11.10;4.93;;;;;;;23.03;59.39;100238.38;5022316;28;20136;-72
2022/07/30 05:48:52;;;;;;;10.93;4.60;;;;;;;23.02;58.59;100213.97;5012720;28;20073;-73
2022/07/30 05:51:19;;;;;;;8.75;4.63;;;;;;;23.21;58.55;100238.75;5012681;28;20414;-73
2022/07/30 05:53:47;;;;;;;8.32;4.63;;;;;;;23.34;57.97;100237.41;5012961;28;20598;-73
2022/07/30 05:56:13;;;;;;;6.97;4.10;;;;;;;23.34;57.83;100226.03;5012938;28;20064;-72
2022/07/30 05:58:40;;;;;;;9.30;4.97;;;;;;;23.38;57.74;100227.78;5008390;28;20133;-72
2022/07/30 06:01:07;;;;;;;10.48;4.43;;;;;;;23.41;57.59;100229.84;5019991;28;20104;-75
2022/07/30 06:03:34;;;;;;;9.38;4.20;;;;;;;23.44;57.49;100236.81;5004492;28;20066;-71
2022/07/30 06:06:03;;;;;;;8.65;3.88;;;;;;;23.53;57.11;100234.56;4999183;28;20145;-72
2022/07/30 06:08:31;;;;;;;6.13;3.72;;;;;;;23.75;56.35;100243.56;5009408;28;20057;-72
2022/07/30 06:10:58;;;;;;;7.50;4.18;;;;;;;23.87;56.16;100232.81;5002892;28;20498;-71
2022/07/30 06:13:25;;;;;;;6.95;3.80;;;;;;;24.10;55.81;100234.84;5008090;28;20504;-71
2022/07/30 06:15:52;;;;;;;5.78;3.70;;;;;;;24.32;55.44;100236.88;5001970;28;20142;-72
2022/07/30 06:18:19;;;;;;;6.45;3.88;;;;;;;24.40;54.94;100228.44;5008888;28;20402;-78
2022/07/30 06:20:50;;;;;;;7.53;3.72;;;;;;;24.73;54.22;100236.34;5011473;28;20057;-77
2022/07/30 06:23:18;;;;;;;5.43;3.60;;;;;;;24.96;53.79;100239.16;5008243;28;20137;-77
2022/07/30 06:25:46;;;;;;;6.40;3.30;;;;;;;25.26;53.26;100245.72;5008584;28;20060;-74
2022/07/30 06:28:14;;;;;;;4.93;2.80;;;;;;;25.46;52.27;100225.53;5012032;28;20096;-79
2022/07/30 06:31:01;;;;;;;4.43;3.03;;;;;;;25.76;51.94;100234.88;5011939;28;20319;-72
2022/07/30 06:33:28;;;;;;;6.22;2.88;;;;;;;25.85;50.93;100190.88;5009147;28;20062;-71
2022/07/30 06:35:55;;;;;;;4.07;3.00;;;;;;;26.09;50.24;100181.72;5007903;28;20050;-69
2022/07/30 06:38:22;;;;;;;5.75;2.80;;;;;;;26.73;49.78;100243.59;5006684;28;20057;-72
2022/07/30 06:40:49;;;;;;;5.78;2.80;;;;;;;26.92;49.31;100229.00;5003965;28;20162;-70
2022/07/30 06:43:17;;;;;;;3.67;2.88;;;;;;;27.11;48.79;100217.22;5007308;28;20129;-69
2022/07/30 06:45:44;;;;;;;4.60;3.13;;;;;;;27.43;48.07;100230.09;5007244;28;20502;-73
2022/07/30 06:48:11;;;;;;;4.47;2.40;;;;;;;27.78;47.44;100233.09;5011287;28;20494;-73
2022/07/30 06:50:40;;;;;;;3.38;2.55;;;;;;;27.84;46.69;100204.84;5008434;28;20054;-73
2022/07/30 06:53:07;;;;;;;3.30;2.00;;;;;;;27.95;45.95;100204.88;5003792;28;20213;-72
2022/07/30 06:55:34;;;;;;;4.53;2.70;;;;;;;28.03;44.99;100203.63;5007996;28;20149;-69
2022/07/30 06:58:01;;;;;;;3.67;2.40;;;;;;;28.25;44.76;100219.66;5005270;28;20137;-70
2022/07/30 07:00:28;;;;;;;3.35;2.33;;;;;;;28.47;44.53;100213.94;5001214;28;20167;-72
2022/07/30 07:02:54;;;;;;;5.68;2.50;;;;;;;28.65;44.24;100234.03;5005051;28;20124;-71
2022/07/30 07:05:22;;;;;;;7.00;2.83;;;;;;;29.00;43.71;100239.75;5007045;28;20473;-73
2022/07/30 07:07:49;;;;;;;5.05;2.75;;;;;;;29.22;43.09;100229.00;5004104;28;20053;-74
2022/07/30 07:10:25;;;;;;;3.55;2.60;;;;;;;29.33;42.95;100211.72;5037052;28;20040;-79
2022/07/30 07:12:52;;;;;;;6.32;2.90;;;;;;;29.74;42.60;100245.66;5015204;28;20073;-78
2022/07/30 07:15:19;;;;;;;3.00;1.90;;;;;;;29.80;41.73;100215.22;5010525;28;21262;-83
2022/07/30 07:17:56;;;;;;;3.70;2.47;;;;;;;29.92;41.81;100203.22;5004962;28;20128;-74
2022/07/30 07:20:27;;;;;;;4.90;2.33;;;;;;;30.43;41.59;100238.25;5006617;28;20507;-74
2022/07/30 07:22:54;;;;;;;6.20;2.70;;;;;;;30.55;40.46;100228.25;5005024;28;20056;-72
2022/07/30 07:25:23;;;;;;;3.83;2.00;;;;;;;30.56;41.07;100196.13;5001398;28;20099;-72
2022/07/30 07:27:50;;;;;;;3.90;2.65;;;;;;;30.88;40.58;100216.03;5002390;28;20387;-72
2022/07/30 07:30:37;;;;;;;5.72;2.47;;;;;;;31.12;40.25;100245.03;4999276;28;20058;-71
2022/07/30 07:33:04;;;;;;;4.78;2.60;;;;;;;31.29;39.74;100251.84;5001935;28;20046;-73
2022/07/30 07:35:31;;;;;;;5.93;2.20;;;;;;;31.24;39.62;100224.25;5003263;28;20116;-73
2022/07/30 07:38:15;;;;;;;4.60;2.75;;;;;;;31.55;39.22;100256.06;5006936;28;20081;-73
2022/07/30 07:40:42;;;;;;;7.78;2.38;;;;;;;31.65;38.86;100263.78;5007560;28;20081;-73
2022/07/30 07:43:08;;;;;;;4.53;2.45;;;;;;;31.76;38.48;100255.81;5008159;28;20128;-71
2022/07/30 07:45:35;;;;;;;4.95;2.70;;;;;;;31.68;38.06;100228.28;5008766;28;20046;-73
2022/07/30 07:48:03;;;;;;;3.67;2.55;;;;;;;31.90;38.00;100259.75;5002196;28;20675;-71
2022/07/30 07:50:30;;;;;;;3.10;2.42;;;;;;;32.02;37.49;100260.00;5005415;28;20118;-79
2022/07/30 07:52:56;;;;;;;4.70;2.58;;;;;;;31.97;37.57;100228.72;5020691;28;20141;-74
2022/07/30 07:55:24;;;;;;;6.60;3.65;;;;;;;32.24;37.56;100251.84;5011047;28;20141;-70
2022/07/30 07:57:51;;;;;;;7.97;4.00;;;;;;;32.15;37.03;100242.06;5011520;28;20048;-74
2022/07/30 08:00:19;;;;;;;7.47;2.63;;;;;;;32.30;37.18;100244.28;5004864;28;20042;-68
2022/07/30 08:02:47;;;;;;;3.30;2.33;;;;;;;32.43;36.87;100255.28;5007595;28;20088;-71
2022/07/30 08:05:16;;;;;;;5.93;2.70;;;;;;;32.23;36.35;100267.50;5006924;28;20053;-68
2022/07/30 08:07:44;;;;;;;4.60;2.30;;;;;;;32.03;36.36;100257.91;5000456;28;20329;-70
2022/07/30 08:10:12;;;;;;;2.57;2.13;;;;;;;31.88;35.84;100262.28;5014512;28;20581;-71
2022/07/30 08:12:39;;;;;;;6.07;1.95;;;;;;;32.02;36.53;100262.06;5002374;28;20148;-70
2022/07/30 08:15:08;;;;;;;5.03;2.30;;;;;;;32.17;36.05;100257.72;5003397;28;20152;-74
2022/07/30 08:17:39;;;;;;;;;;;;;;;32.08;36.03;100255.38;5000195;28;20152;-71
2022/07/30 08:20:06;;;;;;;2.63;1.58;;;;;;;32.09;35.86;100256.19;5006238;28;19921;-71
2022/07/30 08:22:33;;;;;;;2.22;1.70;;;;;;;32.07;35.27;100267.38;5021103;28;20085;-71
2022/07/30 08:25:00;;;;;;;7.13;2.20;;;;;;;32.19;35.61;100266.75;5001096;28;20603;-70
2022/07/30 08:27:29;;;;;;;;;;;;;;;32.32;36.54;100259.13;5006390;28;20132;-69
2022/07/30 08:29:56;;;;;;;3.22;2.10;;;;;;;32.31;35.08;100248.81;5021636;28;19921;-69
2022/07/30 08:32:24;;;;;;;6.30;1.90;;;;;;;32.09;34.67;100250.41;5005393;28;20812;-69
2022/07/30 08:34:50;;;;;;;3.42;2.78;;;;;;;32.31;35.11;100250.91;5008970;28;20073;-70
2022/07/30 08:37:18;;;;;;;6.55;3.03;;;;;;;32.55;34.60;100254.66;5004615;28;20060;-70
2022/07/30 08:39:45;;;;;;;4.32;2.00;;;;;;;32.78;34.44;100254.66;5005495;28;20511;-69
2022/07/30 08:42:13;;;;;;;5.03;2.80;;;;;;;32.86;33.75;100257.44;5008971;28;20133;-70
2022/07/30 08:44:42;;;;;;;4.32;2.22;;;;;;;32.89;33.58;100263.16;5008944;28;20184;-70
2022/07/30 08:47:15;;;;;;;5.30;2.20;;;;;;;32.86;33.39;100237.19;5011581;28;20081;-68
2022/07/30 08:49:42;;;;;;;2.95;1.67;;;;;;;33.17;33.19;100261.81;5012810;28;20479;-68
2022/07/30 08:52:09;;;;;;;3.30;1.63;;;;;;;33.12;32.90;100247.03;5007842;28;20149;-69
2022/07/30 08:54:38;;;;;;;5.68;1.60;;;;;;;33.17;33.46;100238.69;5011747;28;20084;-71
2022/07/30 08:57:05;;;;;;;2.53;1.73;;;;;;;33.34;33.32;100264.81;5010394;28;20152;-70
2022/07/30 08:59:32;;;;;;;4.90;2.20;;;;;;;33.37;32.76;100261.00;5012738;28;20081;-70
2022/07/30 09:02:19;;;;;;;9.05;1.83;;;;;;;33.32;32.84;100270.22;5002356;28;20054;-71
2022/07/30 09:04:53;;;;;;;3.00;1.45;;;;;;;33.23;32.40;100274.53;5010983;28;20041;-72
2022/07/30 09:07:20;;;;;;;3.38;1.88;;;;;;;33.35;32.29;100255.66;5009251;28;20092;-69
2022/07/30 09:09:47;;;;;;;11.40;2.05;;;;;;;33.38;32.13;100253.97;5006880;28;20081;-75
2022/07/30 09:12:40;;;;;;;3.25;2.05;;;;;;;33.59;32.04;100255.63;5008231;28;20136;-71
2022/07/30 09:15:14;;;;;;;4.22;2.10;;;;;;;33.75;31.90;100254.88;5003767;28;20501;-70
2022/07/30 09:18:01;;;;;;;4.57;2.08;;;;;;;33.59;31.58;100262.22;5005392;28;20136;-73
2022/07/30 09:20:35;;;;;;;4.55;1.65;;;;;;;33.29;31.51;100245.88;5009473;28;20081;-70
2022/07/30 09:23:03;;;;;;;4.07;1.60;;;;;;;33.35;31.20;100217.22;5012311;28;20132;-69
2022/07/30 09:25:33;;;;;;;;;;;;;;;33.30;31.63;100243.78;5007333;28;20507;-70
2022/07/30 09:28:01;;;;;;;6.35;2.40;;;;;;;33.37;30.92;100255.22;5009222;28;20008;-71
2022/07/30 09:30:52;;;;;;;3.38;1.85;;;;;;;33.73;31.16;100253.22;5009063;28;20773;-73
2022/07/30 09:33:39;;;;;;;3.78;2.05;;;;;;;33.86;30.85;100259.16;5009213;28;20089;-71
2022/07/30 09:36:08;;;;;;;1.67;1.40;;;;;;;33.84;30.90;100255.06;5008946;28;20108;-72
2022/07/30 09:38:50;;;;;;;5.53;1.42;;;;;;;33.70;30.61;100247.53;5009088;28;20080;-72
2022/07/30 09:41:37;;;;;;;3.13;1.80;;;;;;;33.93;30.84;100244.50;5008939;28;20494;-69
2022/07/30 09:44:06;;;;;;;2.88;1.73;;;;;;;34.15;29.99;100265.13;5009289;28;20069;-69
2022/07/30 09:46:42;;;;;;;3.80;2.00;;;;;;;34.51;30.52;100258.50;5005057;28;20125;-70
2022/07/30 09:49:14;;;;;;;4.30;2.15;;;;;;;34.84;30.15;100256.41;5007474;28;20133;-71
2022/07/30 09:51:41;;;;;;;2.25;2.00;;;;;;;35.14;29.85;100272.59;5006535;28;20050;-71
2022/07/30 09:54:25;;;;;;;7.45;2.65;;;;;;;35.45;29.97;100265.53;5000750;28;20469;-70
2022/07/30 09:57:09;;;;;;;5.13;2.28;;;;;;;35.58;29.76;100278.03;5009128;28;20996;-70
2022/07/30 09:59:54;;;;;;;3.25;1.52;;;;;;;35.69;29.14;100269.00;5007599;28;20054;-68
2022/07/30 10:02:28;;;;;;;1.60;1.20;;;;;;;35.50;28.86;100268.69;5006418;28;20053;-71
2022/07/30 10:05:12;;;;;;;5.53;2.20;;;;;;;35.67;29.35;100259.94;5008997;28;20050;-73
2022/07/30 10:08:01;;;;;;;5.93;2.38;;;;;;;35.67;28.51;100262.84;5006434;28;20509;-72
2022/07/30 10:10:43;;;;;;;3.10;1.63;;;;;;;35.95;28.84;100281.50;5008389;28;20049;-70
2022/07/30 10:13:13;;;;;;;3.10;1.63;;;;;;;36.15;28.68;100267.59;5012550;28;20045;-72
2022/07/30 10:15:48;;;;;;;2.88;1.65;;;;;;;36.12;28.38;100239.47;5007456;28;20092;-72
2022/07/30 10:18:15;;;;;;;3.75;1.55;;;;;;;36.32;28.75;100250.88;5008276;28;20049;-70
2022/07/30 10:20:43;;;;;;;3.13;1.73;;;;;;;36.54;28.46;100271.34;5005177;28;20050;-73
2022/07/30 10:23:12;;;;;;;3.10;1.65;;;;;;;36.51;28.34;100270.19;5009090;28;20060;-70
2022/07/30 10:26:00;;;;;;;8.43;1.75;;;;;;;36.61;28.66;100268.19;5005647;28;20060;-73
2022/07/30 10:28:30;;;;;;;2.40;1.80;;;;;;;36.75;28.46;100270.63;5018765;28;20061;-75
2022/07/30 10:31:04;;;;;;;2.20;1.35;;;;;;;36.80;28.26;100260.47;5003936;28;20100;-69
2022/07/30 10:33:51;;;;;;;5.70;2.13;;;;;;;36.84;27.85;100278.63;5003491;28;20057;-68
2022/07/30 10:36:20;;;;;;;5.07;1.60;;;;;;;37.02;27.79;100265.56;5006768;28;20152;-69
2022/07/30 10:38:51;;;;;;;2.10;1.40;;;;;;;37.08;27.46;100235.41;5004928;28;20045;-71
2022/07/30 10:41:51;;;;;;;;;;;;;;;37.06;28.64;100257.53;5013880;28;20056;-69
2022/07/30 10:44:31;;;;;;;5.93;2.85;;;;;;;37.25;28.07;100250.59;4987762;28;19926;-72
2022/07/30 10:47:04;;;;;;;4.22;2.15;;;;;;;37.44;26.98;100266.97;5001212;28;20437;-69
2022/07/30 10:49:34;;;;;;;4.63;1.92;;;;;;;37.32;27.01;100235.75;5005833;28;20057;-73
2022/07/30 10:52:09;;;;;;;7.03;4.88;;;;;;;37.62;27.23;100254.63;5002629;28;20065;-69
2022/07/30 10:54:39;;;;;;;5.38;3.15;;;;;;;37.67;26.54;100253.19;5002291;28;20073;-69
2022/07/30 10:57:18;;;;;;;8.98;3.47;;;;;;;37.61;26.89;100232.59;5006832;28;20157;-71
2022/07/30 11:00:00;;;;;;;2.38;1.55;;;;;;;37.70;27.18;100258.06;5009390;28;20112;-69
2022/07/30 11:02:33;;;;;;;3.40;1.45;;;;;;;37.74;26.38;100240.44;5009209;28;20050;-69
2022/07/30 11:05:16;;;;;;;4.15;1.85;;;;;;;37.86;27.12;100254.94;5009906;28;20052;-70
2022/07/30 11:07:44;;;;;;;2.83;1.65;;;;;;;37.81;26.76;100211.81;5003914;28;20061;-71
2022/07/30 11:10:39;;;;;;;3.50;2.05;;;;;;;38.11;26.40;100244.41;5003275;28;20058;-70
2022/07/30 11:13:06;;;;;;;;;;;;;;;37.86;27.15;100243.28;5001112;28;20057;-69
2022/07/30 11:15:58;;;;;;;2.60;1.60;;;;;;;38.08;26.97;100242.44;5001107;28;20503;-70
2022/07/30 11:18:26;;;;;;;7.15;2.47;;;;;;;38.26;27.31;100241.69;5005743;28;20096;-69
2022/07/30 11:21:18;;;;;;;2.88;1.98;;;;;;;38.33;27.01;100226.84;5005298;28;20140;-69
2022/07/30 11:23:47;;;;;;;2.10;1.40;;;;;;;38.57;26.44;100251.25;5000935;28;20136;-68
2022/07/30 11:26:38;;;;;;;3.70;1.50;;;;;;;38.57;26.35;100242.50;5001832;28;20064;-69
2022/07/30 11:29:27;;;;;;;3.17;1.98;;;;;;;38.75;25.42;100235.88;5007649;28;20046;-69
2022/07/30 11:32:25;;;;;;;3.03;2.03;;;;;;;38.61;25.82;100239.44;5004584;28;20100;-72
2022/07/30 11:35:12;;;;;;;4.63;1.65;;;;;;;38.40;25.17;100215.72;4994661;28;20058;-69
2022/07/30 11:37:57;;;;;;;1.67;1.38;;;;;;;38.50;24.88;100239.88;5006727;28;20085;-68
2022/07/30 11:40:31;;;;;;;;;;;;;;;38.14;25.55;100235.50;5008258;28;20045;-70
2022/07/30 11:43:19;;;;;;;2.53;1.48;;;;;;;38.52;25.41;100240.19;5005285;28;20008;-69